sensor_id;sensor_type;location;lat;lon;timestamp;P1;durP1;ratioP1;P2;durP2;ratioP2
12437;SDS011;6283;51.330;12.374;2022-11-20T00:00:26;20.57;;;10.20;;
12437;SDS011;6283;51.330;12.374;2022-11-20T00:02:52;23.93;;;10.10;;
12437;SDS011;6283;51.330;12.374;2022-11-20T00:05:17;17.67;;;9.60;;
12437;SDS011;6283;51.330;12.374;2022-11-20T00:07:43;15.67;;;9.13;;
12437;SDS011;6283;51.330;12.374;2022-11-20T00:10:09;16.43;;;9.00;;
12437;SDS011;6283;51.330;12.374;2022-11-20T00:12:34;17.90;;;9.23;;
12437;SDS011;6283;51.330;12.374;2022-11-20T00:15:00;16.40;;;8.87;;
12437;SDS011;6283;51.330;12.374;2022-11-20T00:17:26;16.57;;;9.57;;
12437;SDS011;6283;51.330;12.374;2022-11-20T00:19:51;14.70;;;8.57;;
12437;SDS011;6283;51.330;12.374;2022-11-20T00:22:17;15.87;;;9.23;;
12437;SDS011;6283;51.330;12.374;2022-11-20T00:24:42;15.67;;;8.33;;
12437;SDS011;6283;51.330;12.374;2022-11-20T00:27:08;17.20;;;9.27;;
12437;SDS011;6283;51.330;12.374;2022-11-20T00:29:34;20.57;;;10.13;;
12437;SDS011;6283;51.330;12.374;2022-11-20T00:31:59;19.50;;;10.07;;
12437;SDS011;6283;51.330;12.374;2022-11-20T00:34:25;14.87;;;8.73;;
12437;SDS011;6283;51.330;12.374;2022-11-20T00:36:50;17.97;;;9.50;;
12437;SDS011;6283;51.330;12.374;2022-11-20T00:39:16;19.30;;;10.07;;
12437;SDS011;6283;51.330;12.374;2022-11-20T00:41:42;15.37;;;8.80;;
12437;SDS011;6283;51.330;12.374;2022-11-20T00:44:07;16.27;;;9.43;;
12437;SDS011;6283;51.330;12.374;2022-11-20T00:46:33;15.63;;;9.30;;
12437;SDS011;6283;51.330;12.374;2022-11-20T00:48:59;18.47;;;9.97;;
12437;SDS011;6283;51.330;12.374;2022-11-20T00:51:25;17.97;;;9.93;;
12437;SDS011;6283;51.330;12.374;2022-11-20T00:53:54;17.20;;;10.50;;
12437;SDS011;6283;51.330;12.374;2022-11-20T00:56:24;19.00;;;9.33;;
12437;SDS011;6283;51.330;12.374;2022-11-20T00:58:50;16.67;;;9.07;;
12437;SDS011;6283;51.330;12.374;2022-11-20T01:01:23;17.63;;;9.47;;
12437;SDS011;6283;51.330;12.374;2022-11-20T01:03:50;16.30;;;9.17;;
12437;SDS011;6283;51.330;12.374;2022-11-20T01:06:18;16.07;;;8.57;;
12437;SDS011;6283;51.330;12.374;2022-11-20T01:08:45;22.13;;;9.83;;
12437;SDS011;6283;51.330;12.374;2022-11-20T01:11:13;16.97;;;8.17;;
12437;SDS011;6283;51.330;12.374;2022-11-20T01:13:40;17.10;;;10.10;;
12437;SDS011;6283;51.330;12.374;2022-11-20T01:18:32;18.80;;;10.10;;
12437;SDS011;6283;51.330;12.374;2022-11-20T01:21:05;19.00;;;9.70;;
12437;SDS011;6283;51.330;12.374;2022-11-20T01:23:36;17.97;;;9.90;;
12437;SDS011;6283;51.330;12.374;2022-11-20T01:26:05;17.90;;;9.70;;
12437;SDS011;6283;51.330;12.374;2022-11-20T01:28:32;15.67;;;9.23;;
12437;SDS011;6283;51.330;12.374;2022-11-20T01:30:58;15.37;;;8.90;;
12437;SDS011;6283;51.330;12.374;2022-11-20T01:33:24;15.27;;;8.73;;
12437;SDS011;6283;51.330;12.374;2022-11-20T01:35:50;16.20;;;9.60;;
12437;SDS011;6283;51.330;12.374;2022-11-20T01:38:17;20.57;;;10.37;;
12437;SDS011;6283;51.330;12.374;2022-11-20T01:40:43;19.53;;;9.90;;
12437;SDS011;6283;51.330;12.374;2022-11-20T01:43:18;16.40;;;8.93;;
12437;SDS011;6283;51.330;12.374;2022-11-20T01:48:22;17.27;;;9.13;;
12437;SDS011;6283;51.330;12.374;2022-11-20T01:50:50;16.53;;;8.87;;
12437;SDS011;6283;51.330;12.374;2022-11-20T01:53:18;22.63;;;10.07;;
12437;SDS011;6283;51.330;12.374;2022-11-20T01:55:49;18.10;;;9.90;;
12437;SDS011;6283;51.330;12.374;2022-11-20T01:58:19;20.70;;;9.13;;
12437;SDS011;6283;51.330;12.374;2022-11-20T02:00:48;18.83;;;10.50;;
12437;SDS011;6283;51.330;12.374;2022-11-20T02:03:15;16.23;;;9.47;;
12437;SDS011;6283;51.330;12.374;2022-11-20T02:05:44;19.40;;;10.50;;
12437;SDS011;6283;51.330;12.374;2022-11-20T02:08:20;15.70;;;9.17;;
12437;SDS011;6283;51.330;12.374;2022-11-20T02:10:47;16.53;;;9.13;;
12437;SDS011;6283;51.330;12.374;2022-11-20T02:13:13;14.23;;;8.67;;
12437;SDS011;6283;51.330;12.374;2022-11-20T02:15:57;18.50;;;9.83;;
12437;SDS011;6283;51.330;12.374;2022-11-20T02:18:22;18.43;;;9.67;;
12437;SDS011;6283;51.330;12.374;2022-11-20T02:20:50;18.57;;;9.90;;
12437;SDS011;6283;51.330;12.374;2022-11-20T02:23:29;18.23;;;10.27;;
12437;SDS011;6283;51.330;12.374;2022-11-20T02:26:01;20.10;;;10.47;;
12437;SDS011;6283;51.330;12.374;2022-11-20T02:28:30;20.57;;;10.20;;
12437;SDS011;6283;51.330;12.374;2022-11-20T02:30:56;17.40;;;9.73;;
12437;SDS011;6283;51.330;12.374;2022-11-20T02:33:22;21.57;;;10.13;;
12437;SDS011;6283;51.330;12.374;2022-11-20T02:35:47;18.93;;;9.63;;
12437;SDS011;6283;51.330;12.374;2022-11-20T02:38:13;22.47;;;11.03;;
12437;SDS011;6283;51.330;12.374;2022-11-20T02:40:40;19.93;;;10.07;;
12437;SDS011;6283;51.330;12.374;2022-11-20T02:43:05;21.03;;;10.50;;
12437;SDS011;6283;51.330;12.374;2022-11-20T02:45:31;20.13;;;10.23;;
12437;SDS011;6283;51.330;12.374;2022-11-20T02:47:57;21.13;;;10.70;;
12437;SDS011;6283;51.330;12.374;2022-11-20T02:50:22;20.43;;;10.33;;
12437;SDS011;6283;51.330;12.374;2022-11-20T02:52:48;18.00;;;10.43;;
12437;SDS011;6283;51.330;12.374;2022-11-20T02:55:14;19.80;;;9.90;;
12437;SDS011;6283;51.330;12.374;2022-11-20T02:57:39;22.37;;;11.10;;
12437;SDS011;6283;51.330;12.374;2022-11-20T03:00:05;21.83;;;10.47;;
12437;SDS011;6283;51.330;12.374;2022-11-20T03:02:31;19.93;;;10.33;;
12437;SDS011;6283;51.330;12.374;2022-11-20T03:04:57;15.83;;;9.60;;
12437;SDS011;6283;51.330;12.374;2022-11-20T03:07:23;19.83;;;10.33;;
12437;SDS011;6283;51.330;12.374;2022-11-20T03:09:49;19.73;;;10.77;;
12437;SDS011;6283;51.330;12.374;2022-11-20T03:12:14;20.93;;;11.67;;
12437;SDS011;6283;51.330;12.374;2022-11-20T03:14:40;25.70;;;11.60;;
12437;SDS011;6283;51.330;12.374;2022-11-20T03:17:06;18.57;;;10.00;;
12437;SDS011;6283;51.330;12.374;2022-11-20T03:19:31;18.60;;;10.67;;
12437;SDS011;6283;51.330;12.374;2022-11-20T03:21:57;23.00;;;11.07;;
12437;SDS011;6283;51.330;12.374;2022-11-20T03:24:22;17.93;;;10.67;;
12437;SDS011;6283;51.330;12.374;2022-11-20T03:26:48;22.30;;;10.87;;
12437;SDS011;6283;51.330;12.374;2022-11-20T03:29:13;22.33;;;10.43;;
12437;SDS011;6283;51.330;12.374;2022-11-20T03:31:40;25.10;;;11.43;;
12437;SDS011;6283;51.330;12.374;2022-11-20T03:34:06;26.57;;;12.87;;
12437;SDS011;6283;51.330;12.374;2022-11-20T03:36:33;24.50;;;11.83;;
12437;SDS011;6283;51.330;12.374;2022-11-20T03:38:58;20.97;;;10.77;;
12437;SDS011;6283;51.330;12.374;2022-11-20T03:41:28;22.13;;;11.70;;
12437;SDS011;6283;51.330;12.374;2022-11-20T03:43:59;24.30;;;12.07;;
12437;SDS011;6283;51.330;12.374;2022-11-20T03:46:26;26.97;;;11.70;;
12437;SDS011;6283;51.330;12.374;2022-11-20T03:48:52;23.90;;;12.23;;
12437;SDS011;6283;51.330;12.374;2022-11-20T03:51:19;22.47;;;11.07;;
12437;SDS011;6283;51.330;12.374;2022-11-20T03:53:46;30.50;;;12.03;;
12437;SDS011;6283;51.330;12.374;2022-11-20T03:56:13;21.27;;;11.03;;
12437;SDS011;6283;51.330;12.374;2022-11-20T03:58:41;22.13;;;11.33;;
12437;SDS011;6283;51.330;12.374;2022-11-20T04:01:08;21.23;;;10.60;;
12437;SDS011;6283;51.330;12.374;2022-11-20T04:03:37;23.17;;;11.57;;
12437;SDS011;6283;51.330;12.374;2022-11-20T04:06:04;26.00;;;11.90;;
12437;SDS011;6283;51.330;12.374;2022-11-20T04:08:32;25.37;;;11.50;;
12437;SDS011;6283;51.330;12.374;2022-11-20T04:11:07;25.07;;;12.27;;
12437;SDS011;6283;51.330;12.374;2022-11-20T04:13:45;20.27;;;11.00;;
12437;SDS011;6283;51.330;12.374;2022-11-20T04:16:12;23.70;;;11.90;;
12437;SDS011;6283;51.330;12.374;2022-11-20T04:18:38;38.37;;;12.80;;
12437;SDS011;6283;51.330;12.374;2022-11-20T04:21:04;24.97;;;12.03;;
12437;SDS011;6283;51.330;12.374;2022-11-20T04:23:30;21.17;;;11.17;;
12437;SDS011;6283;51.330;12.374;2022-11-20T04:26:09;26.90;;;12.63;;
12437;SDS011;6283;51.330;12.374;2022-11-20T04:28:36;20.43;;;10.17;;
12437;SDS011;6283;51.330;12.374;2022-11-20T04:31:07;24.63;;;12.97;;
12437;SDS011;6283;51.330;12.374;2022-11-20T04:33:33;20.20;;;10.93;;
12437;SDS011;6283;51.330;12.374;2022-11-20T04:36:00;24.63;;;11.70;;
12437;SDS011;6283;51.330;12.374;2022-11-20T04:38:35;26.17;;;11.60;;
12437;SDS011;6283;51.330;12.374;2022-11-20T04:41:02;20.63;;;10.33;;
12437;SDS011;6283;51.330;12.374;2022-11-20T04:43:29;24.83;;;10.93;;
12437;SDS011;6283;51.330;12.374;2022-11-20T04:45:56;25.57;;;11.37;;
12437;SDS011;6283;51.330;12.374;2022-11-20T04:48:22;22.47;;;11.10;;
12437;SDS011;6283;51.330;12.374;2022-11-20T04:50:49;22.40;;;11.33;;
12437;SDS011;6283;51.330;12.374;2022-11-20T04:53:15;22.90;;;12.13;;
12437;SDS011;6283;51.330;12.374;2022-11-20T04:55:41;21.13;;;12.10;;
12437;SDS011;6283;51.330;12.374;2022-11-20T04:58:06;25.77;;;12.27;;
12437;SDS011;6283;51.330;12.374;2022-11-20T05:00:32;20.73;;;11.27;;
12437;SDS011;6283;51.330;12.374;2022-11-20T05:02:58;26.63;;;11.77;;
12437;SDS011;6283;51.330;12.374;2022-11-20T05:05:23;25.07;;;12.10;;
12437;SDS011;6283;51.330;12.374;2022-11-20T05:07:49;25.80;;;12.20;;
12437;SDS011;6283;51.330;12.374;2022-11-20T05:10:14;28.07;;;12.00;;
12437;SDS011;6283;51.330;12.374;2022-11-20T05:12:40;25.73;;;12.40;;
12437;SDS011;6283;51.330;12.374;2022-11-20T05:15:06;24.37;;;11.97;;
12437;SDS011;6283;51.330;12.374;2022-11-20T05:17:32;24.93;;;12.30;;
12437;SDS011;6283;51.330;12.374;2022-11-20T05:19:58;24.37;;;12.23;;
12437;SDS011;6283;51.330;12.374;2022-11-20T05:22:23;22.10;;;11.97;;
12437;SDS011;6283;51.330;12.374;2022-11-20T05:24:49;25.47;;;11.83;;
12437;SDS011;6283;51.330;12.374;2022-11-20T05:27:15;23.60;;;10.27;;
12437;SDS011;6283;51.330;12.374;2022-11-20T05:29:40;25.57;;;11.43;;
12437;SDS011;6283;51.330;12.374;2022-11-20T05:32:06;23.23;;;11.43;;
12437;SDS011;6283;51.330;12.374;2022-11-20T05:34:34;22.93;;;10.73;;
12437;SDS011;6283;51.330;12.374;2022-11-20T05:37:00;22.07;;;10.50;;
12437;SDS011;6283;51.330;12.374;2022-11-20T05:39:26;20.90;;;11.13;;
12437;SDS011;6283;51.330;12.374;2022-11-20T05:41:51;25.13;;;12.23;;
12437;SDS011;6283;51.330;12.374;2022-11-20T05:44:37;21.07;;;11.10;;
12437;SDS011;6283;51.330;12.374;2022-11-20T05:47:02;24.97;;;10.83;;
12437;SDS011;6283;51.330;12.374;2022-11-20T05:49:28;22.20;;;11.93;;
12437;SDS011;6283;51.330;12.374;2022-11-20T05:51:53;28.43;;;12.50;;
12437;SDS011;6283;51.330;12.374;2022-11-20T05:54:19;25.87;;;10.90;;
12437;SDS011;6283;51.330;12.374;2022-11-20T05:56:44;23.37;;;11.30;;
12437;SDS011;6283;51.330;12.374;2022-11-20T05:59:10;25.97;;;11.17;;
12437;SDS011;6283;51.330;12.374;2022-11-20T06:01:35;21.80;;;10.50;;
12437;SDS011;6283;51.330;12.374;2022-11-20T06:04:01;28.20;;;11.50;;
12437;SDS011;6283;51.330;12.374;2022-11-20T06:06:27;23.63;;;11.07;;
12437;SDS011;6283;51.330;12.374;2022-11-20T06:08:52;21.43;;;11.27;;
12437;SDS011;6283;51.330;12.374;2022-11-20T06:11:19;25.07;;;11.53;;
12437;SDS011;6283;51.330;12.374;2022-11-20T06:13:45;20.93;;;11.37;;
12437;SDS011;6283;51.330;12.374;2022-11-20T06:16:11;23.60;;;11.00;;
12437;SDS011;6283;51.330;12.374;2022-11-20T06:18:39;21.83;;;10.47;;
12437;SDS011;6283;51.330;12.374;2022-11-20T06:23:38;26.13;;;12.13;;
12437;SDS011;6283;51.330;12.374;2022-11-20T06:26:04;21.03;;;10.40;;
12437;SDS011;6283;51.330;12.374;2022-11-20T06:28:31;26.93;;;11.80;;
12437;SDS011;6283;51.330;12.374;2022-11-20T06:30:57;20.33;;;10.23;;
12437;SDS011;6283;51.330;12.374;2022-11-20T06:33:23;26.63;;;12.43;;
12437;SDS011;6283;51.330;12.374;2022-11-20T06:35:49;23.53;;;10.70;;
12437;SDS011;6283;51.330;12.374;2022-11-20T06:38:14;24.43;;;10.87;;
12437;SDS011;6283;51.330;12.374;2022-11-20T06:40:40;22.53;;;11.43;;
12437;SDS011;6283;51.330;12.374;2022-11-20T06:43:07;23.63;;;11.77;;
12437;SDS011;6283;51.330;12.374;2022-11-20T06:45:36;24.67;;;12.30;;
12437;SDS011;6283;51.330;12.374;2022-11-20T06:48:02;23.83;;;11.80;;
12437;SDS011;6283;51.330;12.374;2022-11-20T06:50:28;23.30;;;11.90;;
12437;SDS011;6283;51.330;12.374;2022-11-20T06:52:54;25.87;;;11.60;;
12437;SDS011;6283;51.330;12.374;2022-11-20T06:55:20;27.57;;;12.13;;
12437;SDS011;6283;51.330;12.374;2022-11-20T06:57:46;24.57;;;11.03;;
12437;SDS011;6283;51.330;12.374;2022-11-20T07:00:11;23.83;;;11.67;;
12437;SDS011;6283;51.330;12.374;2022-11-20T07:02:38;25.77;;;11.77;;
12437;SDS011;6283;51.330;12.374;2022-11-20T07:05:03;27.87;;;11.77;;
12437;SDS011;6283;51.330;12.374;2022-11-20T07:07:29;25.90;;;12.40;;
12437;SDS011;6283;51.330;12.374;2022-11-20T07:09:55;28.27;;;12.57;;
12437;SDS011;6283;51.330;12.374;2022-11-20T07:12:20;22.20;;;11.87;;
12437;SDS011;6283;51.330;12.374;2022-11-20T07:14:46;23.47;;;11.90;;
12437;SDS011;6283;51.330;12.374;2022-11-20T07:17:12;22.43;;;11.67;;
12437;SDS011;6283;51.330;12.374;2022-11-20T07:19:37;20.80;;;11.13;;
12437;SDS011;6283;51.330;12.374;2022-11-20T07:22:03;26.77;;;11.97;;
12437;SDS011;6283;51.330;12.374;2022-11-20T07:24:29;23.50;;;11.80;;
12437;SDS011;6283;51.330;12.374;2022-11-20T07:26:54;29.03;;;13.10;;
12437;SDS011;6283;51.330;12.374;2022-11-20T07:29:20;22.60;;;11.40;;
12437;SDS011;6283;51.330;12.374;2022-11-20T07:31:45;19.20;;;10.57;;
12437;SDS011;6283;51.330;12.374;2022-11-20T07:34:11;22.17;;;11.63;;
12437;SDS011;6283;51.330;12.374;2022-11-20T07:36:37;25.30;;;12.30;;
12437;SDS011;6283;51.330;12.374;2022-11-20T07:39:02;23.10;;;11.63;;
12437;SDS011;6283;51.330;12.374;2022-11-20T07:41:28;22.47;;;11.63;;
12437;SDS011;6283;51.330;12.374;2022-11-20T07:43:54;21.67;;;11.90;;
12437;SDS011;6283;51.330;12.374;2022-11-20T07:46:19;23.27;;;12.40;;
12437;SDS011;6283;51.330;12.374;2022-11-20T07:48:45;24.80;;;11.00;;
12437;SDS011;6283;51.330;12.374;2022-11-20T07:51:10;25.67;;;13.03;;
12437;SDS011;6283;51.330;12.374;2022-11-20T07:53:36;20.80;;;11.23;;
12437;SDS011;6283;51.330;12.374;2022-11-20T07:56:02;23.80;;;12.13;;
12437;SDS011;6283;51.330;12.374;2022-11-20T07:58:30;23.70;;;12.37;;
12437;SDS011;6283;51.330;12.374;2022-11-20T08:00:58;22.33;;;11.53;;
12437;SDS011;6283;51.330;12.374;2022-11-20T08:03:27;23.70;;;11.93;;
12437;SDS011;6283;51.330;12.374;2022-11-20T08:05:53;26.63;;;13.13;;
12437;SDS011;6283;51.330;12.374;2022-11-20T08:08:19;25.30;;;11.70;;
12437;SDS011;6283;51.330;12.374;2022-11-20T08:10:46;29.20;;;13.63;;
12437;SDS011;6283;51.330;12.374;2022-11-20T08:13:11;26.43;;;14.07;;
12437;SDS011;6283;51.330;12.374;2022-11-20T08:15:55;25.87;;;12.60;;
12437;SDS011;6283;51.330;12.374;2022-11-20T08:18:21;21.47;;;12.23;;
12437;SDS011;6283;51.330;12.374;2022-11-20T08:20:46;23.27;;;12.53;;
12437;SDS011;6283;51.330;12.374;2022-11-20T08:23:12;25.80;;;12.17;;
12437;SDS011;6283;51.330;12.374;2022-11-20T08:25:38;23.40;;;12.83;;
12437;SDS011;6283;51.330;12.374;2022-11-20T08:28:05;27.90;;;12.93;;
12437;SDS011;6283;51.330;12.374;2022-11-20T08:30:32;24.27;;;12.20;;
12437;SDS011;6283;51.330;12.374;2022-11-20T08:33:02;25.17;;;12.93;;
12437;SDS011;6283;51.330;12.374;2022-11-20T08:35:33;22.90;;;11.80;;
12437;SDS011;6283;51.330;12.374;2022-11-20T08:38:00;30.07;;;14.10;;
12437;SDS011;6283;51.330;12.374;2022-11-20T08:40:29;27.50;;;12.13;;
12437;SDS011;6283;51.330;12.374;2022-11-20T08:42:55;25.77;;;12.33;;
12437;SDS011;6283;51.330;12.374;2022-11-20T08:45:21;24.50;;;12.70;;
12437;SDS011;6283;51.330;12.374;2022-11-20T08:47:47;25.77;;;12.47;;
12437;SDS011;6283;51.330;12.374;2022-11-20T08:50:14;23.33;;;12.30;;
12437;SDS011;6283;51.330;12.374;2022-11-20T08:52:40;27.37;;;12.17;;
12437;SDS011;6283;51.330;12.374;2022-11-20T08:55:06;26.50;;;11.73;;
12437;SDS011;6283;51.330;12.374;2022-11-20T08:57:36;28.30;;;12.60;;
12437;SDS011;6283;51.330;12.374;2022-11-20T09:00:05;25.70;;;12.40;;
12437;SDS011;6283;51.330;12.374;2022-11-20T09:02:32;24.50;;;12.23;;
12437;SDS011;6283;51.330;12.374;2022-11-20T09:04:58;21.77;;;10.87;;
12437;SDS011;6283;51.330;12.374;2022-11-20T09:07:23;28.10;;;11.83;;
12437;SDS011;6283;51.330;12.374;2022-11-20T09:09:49;22.33;;;11.47;;
12437;SDS011;6283;51.330;12.374;2022-11-20T09:12:15;20.97;;;11.20;;
12437;SDS011;6283;51.330;12.374;2022-11-20T09:14:40;22.37;;;11.30;;
12437;SDS011;6283;51.330;12.374;2022-11-20T09:17:06;21.67;;;11.50;;
12437;SDS011;6283;51.330;12.374;2022-11-20T09:19:32;21.87;;;10.80;;
12437;SDS011;6283;51.330;12.374;2022-11-20T09:21:58;19.90;;;11.03;;
12437;SDS011;6283;51.330;12.374;2022-11-20T09:24:25;19.13;;;10.30;;
12437;SDS011;6283;51.330;12.374;2022-11-20T09:26:51;21.80;;;10.33;;
12437;SDS011;6283;51.330;12.374;2022-11-20T09:29:16;20.10;;;10.80;;
12437;SDS011;6283;51.330;12.374;2022-11-20T09:31:42;19.00;;;11.40;;
12437;SDS011;6283;51.330;12.374;2022-11-20T09:34:08;21.60;;;9.87;;
12437;SDS011;6283;51.330;12.374;2022-11-20T09:36:34;20.57;;;10.37;;
12437;SDS011;6283;51.330;12.374;2022-11-20T09:39:00;23.00;;;10.23;;
12437;SDS011;6283;51.330;12.374;2022-11-20T09:47:07;20.80;;;10.07;;
12437;SDS011;6283;51.330;12.374;2022-11-20T09:50:02;21.83;;;11.00;;
12437;SDS011;6283;51.330;12.374;2022-11-20T09:52:47;17.23;;;9.13;;
12437;SDS011;6283;51.330;12.374;2022-11-20T09:55:35;22.37;;;10.70;;
12437;SDS011;6283;51.330;12.374;2022-11-20T09:58:02;18.07;;;9.30;;
12437;SDS011;6283;51.330;12.374;2022-11-20T10:00:31;21.33;;;10.17;;
12437;SDS011;6283;51.330;12.374;2022-11-20T10:02:59;21.07;;;10.47;;
12437;SDS011;6283;51.330;12.374;2022-11-20T10:05:33;18.27;;;10.30;;
12437;SDS011;6283;51.330;12.374;2022-11-20T10:08:21;18.47;;;9.60;;
12437;SDS011;6283;51.330;12.374;2022-11-20T10:22:15;18.90;;;10.07;;
12437;SDS011;6283;51.330;12.374;2022-11-20T10:30:16;21.77;;;10.87;;
12437;SDS011;6283;51.330;12.374;2022-11-20T10:32:54;18.93;;;9.23;;
12437;SDS011;6283;51.330;12.374;2022-11-20T10:35:45;18.60;;;10.03;;
12437;SDS011;6283;51.330;12.374;2022-11-20T10:38:16;18.90;;;10.00;;
12437;SDS011;6283;51.330;12.374;2022-11-20T10:40:51;20.17;;;9.40;;
12437;SDS011;6283;51.330;12.374;2022-11-20T10:43:39;16.57;;;8.80;;
12437;SDS011;6283;51.330;12.374;2022-11-20T10:46:10;20.00;;;9.90;;
12437;SDS011;6283;51.330;12.374;2022-11-20T10:48:42;19.33;;;10.17;;
12437;SDS011;6283;51.330;12.374;2022-11-20T10:56:31;15.37;;;7.83;;
12437;SDS011;6283;51.330;12.374;2022-11-20T11:02:14;14.33;;;8.37;;
12437;SDS011;6283;51.330;12.374;2022-11-20T11:04:46;15.10;;;8.20;;
12437;SDS011;6283;51.330;12.374;2022-11-20T11:07:18;16.63;;;8.43;;
12437;SDS011;6283;51.330;12.374;2022-11-20T11:09:49;15.73;;;8.03;;
12437;SDS011;6283;51.330;12.374;2022-11-20T11:12:17;14.27;;;7.80;;
12437;SDS011;6283;51.330;12.374;2022-11-20T11:14:48;17.30;;;7.80;;
12437;SDS011;6283;51.330;12.374;2022-11-20T11:17:31;12.27;;;6.83;;
12437;SDS011;6283;51.330;12.374;2022-11-20T11:20:02;14.17;;;7.77;;
12437;SDS011;6283;51.330;12.374;2022-11-20T11:22:43;9.73;;;5.97;;
12437;SDS011;6283;51.330;12.374;2022-11-20T11:25:23;12.03;;;6.73;;
12437;SDS011;6283;51.330;12.374;2022-11-20T11:27:59;13.47;;;7.07;;
12437;SDS011;6283;51.330;12.374;2022-11-20T11:30:28;13.77;;;6.90;;
12437;SDS011;6283;51.330;12.374;2022-11-20T11:33:11;12.43;;;6.73;;
12437;SDS011;6283;51.330;12.374;2022-11-20T11:35:53;13.17;;;6.93;;
12437;SDS011;6283;51.330;12.374;2022-11-20T11:41:05;12.40;;;6.37;;
12437;SDS011;6283;51.330;12.374;2022-11-20T11:43:34;12.57;;;7.10;;
12437;SDS011;6283;51.330;12.374;2022-11-20T11:48:56;11.27;;;6.57;;
12437;SDS011;6283;51.330;12.374;2022-11-20T11:51:33;12.03;;;7.13;;
12437;SDS011;6283;51.330;12.374;2022-11-20T11:54:00;10.40;;;5.90;;
12437;SDS011;6283;51.330;12.374;2022-11-20T11:56:28;12.33;;;7.30;;
12437;SDS011;6283;51.330;12.374;2022-11-20T11:58:55;10.03;;;6.43;;
12437;SDS011;6283;51.330;12.374;2022-11-20T12:01:37;11.10;;;6.33;;
12437;SDS011;6283;51.330;12.374;2022-11-20T12:06:38;9.33;;;6.40;;
12437;SDS011;6283;51.330;12.374;2022-11-20T12:09:10;9.20;;;5.87;;
12437;SDS011;6283;51.330;12.374;2022-11-20T12:11:43;12.17;;;6.30;;
12437;SDS011;6283;51.330;12.374;2022-11-20T12:16:58;10.37;;;6.67;;
12437;SDS011;6283;51.330;12.374;2022-11-20T12:19:26;11.00;;;6.10;;
12437;SDS011;6283;51.330;12.374;2022-11-20T12:30:27;8.33;;;6.00;;
12437;SDS011;6283;51.330;12.374;2022-11-20T12:41:25;11.83;;;6.80;;
12437;SDS011;6283;51.330;12.374;2022-11-20T12:44:40;10.73;;;6.63;;
12437;SDS011;6283;51.330;12.374;2022-11-20T12:53:39;10.17;;;6.07;;
12437;SDS011;6283;51.330;12.374;2022-11-20T12:59:04;9.17;;;6.20;;
12437;SDS011;6283;51.330;12.374;2022-11-20T13:06:46;12.50;;;7.13;;
12437;SDS011;6283;51.330;12.374;2022-11-20T13:09:13;12.73;;;7.20;;
12437;SDS011;6283;51.330;12.374;2022-11-20T13:19:47;9.40;;;6.60;;
12437;SDS011;6283;51.330;12.374;2022-11-20T13:22:26;8.77;;;6.43;;
12437;SDS011;6283;51.330;12.374;2022-11-20T13:25:28;9.57;;;6.17;;
12437;SDS011;6283;51.330;12.374;2022-11-20T13:28:25;11.17;;;6.77;;
12437;SDS011;6283;51.330;12.374;2022-11-20T13:30:54;11.07;;;6.30;;
12437;SDS011;6283;51.330;12.374;2022-11-20T13:33:28;8.87;;;6.20;;
12437;SDS011;6283;51.330;12.374;2022-11-20T13:38:46;8.33;;;6.27;;
12437;SDS011;6283;51.330;12.374;2022-11-20T13:41:24;10.17;;;6.07;;
12437;SDS011;6283;51.330;12.374;2022-11-20T13:43:53;10.03;;;6.10;;
12437;SDS011;6283;51.330;12.374;2022-11-20T13:46:43;10.50;;;7.77;;
12437;SDS011;6283;51.330;12.374;2022-11-20T13:49:33;10.77;;;6.80;;
12437;SDS011;6283;51.330;12.374;2022-11-20T13:52:18;10.33;;;6.77;;
12437;SDS011;6283;51.330;12.374;2022-11-20T14:00:12;9.07;;;5.70;;
12437;SDS011;6283;51.330;12.374;2022-11-20T14:02:41;9.43;;;5.57;;
12437;SDS011;6283;51.330;12.374;2022-11-20T14:05:15;7.80;;;5.37;;
12437;SDS011;6283;51.330;12.374;2022-11-20T14:07:47;8.93;;;5.83;;
12437;SDS011;6283;51.330;12.374;2022-11-20T14:10:24;9.57;;;5.90;;
12437;SDS011;6283;51.330;12.374;2022-11-20T14:12:51;12.17;;;7.17;;
12437;SDS011;6283;51.330;12.374;2022-11-20T14:15:33;9.57;;;6.13;;
12437;SDS011;6283;51.330;12.374;2022-11-20T14:17:59;11.23;;;6.17;;
12437;SDS011;6283;51.330;12.374;2022-11-20T14:20:36;11.90;;;6.93;;
12437;SDS011;6283;51.330;12.374;2022-11-20T14:23:03;11.07;;;6.90;;
12437;SDS011;6283;51.330;12.374;2022-11-20T14:25:30;9.80;;;6.40;;
12437;SDS011;6283;51.330;12.374;2022-11-20T14:27:59;13.87;;;8.50;;
12437;SDS011;6283;51.330;12.374;2022-11-20T14:30:35;10.80;;;6.67;;
12437;SDS011;6283;51.330;12.374;2022-11-20T14:33:10;9.93;;;6.33;;
12437;SDS011;6283;51.330;12.374;2022-11-20T14:35:40;11.40;;;6.77;;
12437;SDS011;6283;51.330;12.374;2022-11-20T14:38:11;10.77;;;6.33;;
12437;SDS011;6283;51.330;12.374;2022-11-20T14:40:39;10.27;;;6.80;;
12437;SDS011;6283;51.330;12.374;2022-11-20T14:43:23;10.53;;;6.03;;
12437;SDS011;6283;51.330;12.374;2022-11-20T14:46:09;12.50;;;7.03;;
12437;SDS011;6283;51.330;12.374;2022-11-20T14:48:40;11.33;;;6.87;;
12437;SDS011;6283;51.330;12.374;2022-11-20T14:51:10;10.70;;;7.20;;
12437;SDS011;6283;51.330;12.374;2022-11-20T14:53:47;10.83;;;6.67;;
12437;SDS011;6283;51.330;12.374;2022-11-20T14:56:13;10.10;;;6.40;;
12437;SDS011;6283;51.330;12.374;2022-11-20T14:58:55;11.97;;;7.27;;
12437;SDS011;6283;51.330;12.374;2022-11-20T15:01:25;11.57;;;7.00;;
12437;SDS011;6283;51.330;12.374;2022-11-20T15:04:04;11.50;;;7.67;;
12437;SDS011;6283;51.330;12.374;2022-11-20T15:06:49;14.70;;;7.70;;
12437;SDS011;6283;51.330;12.374;2022-11-20T15:09:16;12.17;;;7.97;;
12437;SDS011;6283;51.330;12.374;2022-11-20T15:11:50;16.80;;;8.57;;
12437;SDS011;6283;51.330;12.374;2022-11-20T15:14:21;14.77;;;7.70;;
12437;SDS011;6283;51.330;12.374;2022-11-20T15:16:48;14.43;;;8.33;;
12437;SDS011;6283;51.330;12.374;2022-11-20T15:19:18;12.60;;;7.13;;
12437;SDS011;6283;51.330;12.374;2022-11-20T15:21:46;11.33;;;6.73;;
12437;SDS011;6283;51.330;12.374;2022-11-20T15:24:11;12.30;;;6.77;;
12437;SDS011;6283;51.330;12.374;2022-11-20T15:26:37;12.17;;;7.30;;
12437;SDS011;6283;51.330;12.374;2022-11-20T15:29:05;16.07;;;8.20;;
12437;SDS011;6283;51.330;12.374;2022-11-20T15:31:33;17.17;;;8.70;;
12437;SDS011;6283;51.330;12.374;2022-11-20T15:33:59;12.43;;;7.37;;
12437;SDS011;6283;51.330;12.374;2022-11-20T15:36:25;14.90;;;7.67;;
12437;SDS011;6283;51.330;12.374;2022-11-20T15:38:50;12.53;;;6.70;;
12437;SDS011;6283;51.330;12.374;2022-11-20T15:41:16;13.53;;;7.93;;
12437;SDS011;6283;51.330;12.374;2022-11-20T15:43:42;16.23;;;7.30;;
12437;SDS011;6283;51.330;12.374;2022-11-20T15:46:15;14.63;;;7.80;;
12437;SDS011;6283;51.330;12.374;2022-11-20T15:48:44;13.83;;;8.40;;
12437;SDS011;6283;51.330;12.374;2022-11-20T15:51:38;15.87;;;8.43;;
12437;SDS011;6283;51.330;12.374;2022-11-20T15:54:20;13.23;;;7.43;;
12437;SDS011;6283;51.330;12.374;2022-11-20T15:56:47;12.77;;;7.83;;
12437;SDS011;6283;51.330;12.374;2022-11-20T15:59:14;12.13;;;7.70;;
12437;SDS011;6283;51.330;12.374;2022-11-20T16:01:40;13.83;;;8.43;;
12437;SDS011;6283;51.330;12.374;2022-11-20T16:04:10;18.43;;;9.73;;
12437;SDS011;6283;51.330;12.374;2022-11-20T16:06:37;23.57;;;12.23;;
12437;SDS011;6283;51.330;12.374;2022-11-20T16:09:03;14.17;;;8.57;;
12437;SDS011;6283;51.330;12.374;2022-11-20T16:11:28;14.73;;;8.63;;
12437;SDS011;6283;51.330;12.374;2022-11-20T16:13:54;15.10;;;9.23;;
12437;SDS011;6283;51.330;12.374;2022-11-20T16:16:38;15.53;;;8.90;;